Time;durP1;ratioP1;P1;durP2;ratioP2;P2;SDS_P1;SDS_P2;PMS_P1;PMS_P2;Temp;Humidity;BMP_temperature;BMP_pressure;BME280_temperature;BME280_humidity;BME280_pressure;Samples;Min_cycle;Max_cycle;Signal;HPM_P1;HPM_P2
2023/03/01 00:00:06;;;;;;;0.10;0.10;;;;;;;-1.40;100.00;103160.16;10383338;28;20045;-77
2023/03/01 00:05:12;;;;;;;0.10;0.10;;;;;;;-1.24;100.00;103158.59;10427364;28;20081;-77
2023/03/01 00:10:14;;;;;;;0.10;0.10;;;;;;;-0.70;100.00;103146.72;10408505;28;20049;-76
2023/03/01 00:15:15;;;;;;;0.08;0.08;;;;;;;-1.28;100.00;103159.88;10383147;28;20053;-77
2023/03/01 00:20:17;;;;;;;0.55;0.47;;;;;;;-1.28;100.00;103162.41;10382209;28;20033;-77
2023/03/01 00:25:19;;;;;;;0.00;0.00;;;;;;;-1.53;100.00;103155.38;10416655;28;20107;-77
2023/03/01 00:30:27;;;;;;;0.00;0.00;;;;;;;-2.05;100.00;103158.91;10390723;28;20199;-77
2023/03/01 00:35:29;;;;;;;0.08;0.08;;;;;;;-1.80;100.00;103141.44;10398274;28;20068;-77
2023/03/01 00:40:35;;;;;;;0.00;0.00;;;;;;;-1.81;100.00;103140.56;10387110;28;20048;-76
2023/03/01 00:45:37;;;;;;;0.10;0.10;;;;;;;-2.09;100.00;103136.56;10396848;28;20181;-76
2023/03/01 00:50:38;;;;;;;0.20;0.20;;;;;;;-1.87;100.00;103133.91;10393483;28;20080;-76
2023/03/01 00:55:40;;;;;;;0.08;0.08;;;;;;;-2.38;100.00;103124.03;10405820;28;20029;-77
2023/03/01 01:00:41;;;;;;;0.15;0.15;;;;;;;-2.75;100.00;103115.66;10390644;28;20053;-75
2023/03/01 01:05:43;;;;;;;0.70;0.45;;;;;;;-3.14;100.00;103124.56;10396215;28;20049;-76
2023/03/01 01:10:46;;;;;;;0.28;0.28;;;;;;;-2.78;100.00;103104.31;10413911;28;20056;-76
2023/03/01 01:15:47;;;;;;;0.00;0.00;;;;;;;-2.68;100.00;103103.78;10396089;28;20053;-76
2023/03/01 01:20:49;;;;;;;0.13;0.13;;;;;;;-2.57;100.00;103089.13;10414290;28;20046;-75
2023/03/01 01:25:51;;;;;;;0.05;0.05;;;;;;;-2.72;100.00;103084.88;10395044;28;20087;-76
2023/03/01 01:30:52;;;;;;;0.15;0.15;;;;;;;-3.37;100.00;103083.34;10366066;28;20496;-77
2023/03/01 01:35:54;;;;;;;0.10;0.10;;;;;;;-3.21;100.00;103068.38;10411076;28;20099;-76
2023/03/01 01:40:59;;;;;;;0.10;0.10;;;;;;;-3.44;100.00;103063.19;10407368;28;20152;-77
2023/03/01 01:46:03;;;;;;;0.30;0.30;;;;;;;-3.05;100.00;103060.06;10393426;28;20045;-76
2023/03/01 01:51:06;;;;;;;1.05;0.65;;;;;;;-2.18;100.00;103067.31;10387339;28;20424;-76
2023/03/01 01:56:10;;;;;;;0.68;0.65;;;;;;;-2.28;100.00;103078.94;10379525;28;20096;-77
2023/03/01 02:01:12;;;;;;;0.00;0.00;;;;;;;-2.08;100.00;103082.78;10368667;28;20084;-76
2023/03/01 02:06:37;;;;;;;0.20;0.20;;;;;;;-1.95;100.00;103074.97;10380629;28;20053;-76
2023/03/01 02:11:39;;;;;;;0.03;0.03;;;;;;;-1.99;100.00;103073.72;10387137;28;20052;-77
2023/03/01 02:16:42;;;;;;;0.10;0.10;;;;;;;-1.87;100.00;103078.31;10395284;28;20099;-77
2023/03/01 02:22:06;;;;;;;0.68;0.68;;;;;;;-2.22;100.00;103076.16;10398670;28;20408;-77
2023/03/01 02:27:09;;;;;;;0.35;0.35;;;;;;;-2.16;100.00;103075.97;10390380;28;20111;-76
2023/03/01 02:32:12;;;;;;;0.20;0.20;;;;;;;-2.42;100.00;103068.91;10385357;28;20125;-76
2023/03/01 02:37:20;;;;;;;0.03;0.03;;;;;;;-2.08;100.00;103062.56;10402432;28;20394;-77
2023/03/01 02:42:26;;;;;;;0.40;0.35;;;;;;;-2.20;100.00;103071.31;10408899;28;20137;-76
2023/03/01 02:47:28;;;;;;;0.10;0.10;;;;;;;-2.31;100.00;103072.63;10377057;28;20038;-76
2023/03/01 02:52:35;;;;;;;0.20;0.20;;;;;;;-2.10;100.00;103058.97;10416010;28;20056;-77
2023/03/01 02:57:41;;;;;;;0.20;0.20;;;;;;;-2.38;100.00;103055.00;10400840;28;20049;-77
2023/03/01 03:02:49;;;;;;;0.22;0.20;;;;;;;-2.12;100.00;103056.28;10389125;28;20045;-76
2023/03/01 03:07:53;;;;;;;0.45;0.45;;;;;;;-2.33;100.00;103059.81;10382356;28;20075;-77
2023/03/01 03:12:57;;;;;;;0.38;0.38;;;;;;;-2.34;100.00;103055.47;10399702;28;20050;-76
2023/03/01 03:17:59;;;;;;;0.10;0.10;;;;;;;-2.52;100.00;103056.84;10413100;28;20132;-77
2023/03/01 03:23:01;;;;;;;0.52;0.52;;;;;;;-2.41;100.00;103058.03;10394893;28;20116;-77
2023/03/01 03:28:09;;;;;;;0.30;0.30;;;;;;;-2.21;100.00;103051.84;10417707;28;20037;-77
2023/03/01 03:33:11;;;;;;;0.50;0.50;;;;;;;-2.32;100.00;103059.09;10383283;28;20404;-77
2023/03/01 03:38:17;;;;;;;0.20;0.20;;;;;;;-2.54;100.00;103058.31;10410323;28;20132;-77
2023/03/01 03:43:21;;;;;;;0.00;0.00;;;;;;;-2.27;100.00;103055.44;10415463;28;20041;-76
2023/03/01 03:48:24;;;;;;;0.10;0.10;;;;;;;-2.37;100.00;103050.09;10383705;28;20045;-76
2023/03/01 03:53:27;;;;;;;0.20;0.20;;;;;;;-2.51;100.00;103045.13;10399444;28;20156;-76
2023/03/01 03:58:28;;;;;;;0.08;0.08;;;;;;;-2.80;100.00;103043.59;10377042;28;20046;-77
2023/03/01 04:03:32;;;;;;;0.80;0.70;;;;;;;-2.75;100.00;103036.56;10407912;28;20137;-76
2023/03/01 04:08:34;;;;;;;0.98;0.80;;;;;;;-3.42;100.00;103025.53;10416048;28;20033;-76
2023/03/01 04:13:36;;;;;;;0.55;0.55;;;;;;;-3.26;100.00;103019.03;10409649;28;20049;-77
2023/03/01 04:18:37;;;;;;;0.10;0.10;;;;;;;-3.10;100.00;103025.88;10411463;28;20481;-76
2023/03/01 04:23:40;;;;;;;0.10;0.10;;;;;;;-3.32;100.00;103013.31;10383888;28;20096;-77
2023/03/01 04:28:47;;;;;;;0.57;0.57;;;;;;;-3.17;100.00;103015.78;10387670;28;20045;-76
2023/03/01 04:33:55;;;;;;;0.45;0.45;;;;;;;-3.02;100.00;102994.88;10408038;28;20056;-76
2023/03/01 04:38:56;;;;;;;0.10;0.10;;;;;;;-3.25;100.00;102993.13;10383468;28;20044;-76
2023/03/01 04:43:59;;;;;;;0.20;0.20;;;;;;;-3.32;100.00;102998.16;10385416;28;20133;-77
2023/03/01 04:49:03;;;;;;;0.10;0.10;;;;;;;-2.93;100.00;103000.94;10397500;28;20113;-75
2023/03/01 05:00:20;;;;;;;0.43;0.43;;;;;;;-3.06;100.00;102995.22;10408896;28;20516;-77
2023/03/01 05:05:27;;;;;;;0.10;0.10;;;;;;;-3.17;100.00;102983.00;10392634;28;20069;-76
2023/03/01 05:10:31;;;;;;;0.00;0.00;;;;;;;-3.41;100.00;102977.81;10406308;28;20052;-76
2023/03/01 05:15:32;;;;;;;0.03;0.03;;;;;;;-3.62;100.00;102973.72;10412396;28;20056;-77
2023/03/01 05:20:36;;;;;;;0.15;0.15;;;;;;;-3.59;100.00;102969.03;10397043;28;20547;-76
2023/03/01 05:25:39;;;;;;;0.10;0.10;;;;;;;-3.58;100.00;102957.34;10393241;28;20065;-78
2023/03/01 05:30:41;;;;;;;2.35;0.80;;;;;;;-3.84;100.00;102945.13;10392574;28;20087;-77
2023/03/01 05:35:44;;;;;;;0.10;0.10;;;;;;;-4.12;100.00;102940.97;10395151;28;20104;-77
2023/03/01 05:40:47;;;;;;;0.30;0.30;;;;;;;-4.31;100.00;102926.22;10403712;28;20531;-77
2023/03/01 05:45:49;;;;;;;0.98;0.63;;;;;;;-4.14;100.00;102908.06;10412191;28;20049;-77
2023/03/01 05:50:51;;;;;;;2.58;1.35;;;;;;;-3.71;100.00;102904.63;10385208;28;20487;-77
2023/03/01 05:55:53;;;;;;;1.35;1.08;;;;;;;-3.65;100.00;102915.41;10390329;28;20061;-77
2023/03/01 06:00:54;;;;;;;0.10;0.10;;;;;;;-3.60;100.00;102929.44;10395069;28;20052;-77
2023/03/01 06:05:58;;;;;;;0.10;0.10;;;;;;;-3.47;100.00;102935.91;10414105;28;20113;-77
2023/03/01 06:11:00;;;;;;;0.40;0.40;;;;;;;-3.32;100.00;102942.72;10411221;28;20045;-78
2023/03/01 06:16:05;;;;;;;0.10;0.10;;;;;;;-3.49;100.00;102960.03;10402761;28;20049;-77
2023/03/01 06:21:07;;;;;;;0.10;0.10;;;;;;;-3.26;100.00;102952.59;10402542;28;20075;-76
2023/03/01 06:26:09;;;;;;;0.10;0.10;;;;;;;-3.31;100.00;102956.22;10410746;28;20041;-77
2023/03/01 06:31:11;;;;;;;0.10;0.10;;;;;;;-3.16;100.00;102959.59;10393120;28;20049;-77
2023/03/01 06:36:12;;;;;;;0.10;0.10;;;;;;;-3.15;100.00;102968.94;10390459;28;20049;-77
2023/03/01 06:41:14;;;;;;;0.10;0.10;;;;;;;-2.92;100.00;102967.41;10397794;28;20053;-76
2023/03/01 06:46:15;;;;;;;0.15;0.15;;;;;;;-3.10;100.00;102970.38;10399706;28;20046;-77
2023/03/01 06:51:17;;;;;;;0.00;0.00;;;;;;;-3.06;100.00;102957.38;10416706;28;20044;-76
2023/03/01 06:56:19;;;;;;;0.47;0.47;;;;;;;-2.84;100.00;102948.13;10400152;28;20801;-77
2023/03/01 07:01:20;;;;;;;0.10;0.10;;;;;;;-2.35;100.00;102942.63;10393577;28;20033;-77
2023/03/01 07:06:23;;;;;;;0.20;0.20;;;;;;;-1.99;100.00;102947.41;10399386;28;20107;-77
2023/03/01 07:11:24;;;;;;;0.52;0.52;;;;;;;-1.57;100.00;102949.38;10396985;28;20107;-77
2023/03/01 07:16:26;;;;;;;0.38;0.38;;;;;;;-1.58;100.00;102955.16;10417675;28;20042;-76
2023/03/01 07:21:28;;;;;;;0.10;0.10;;;;;;;-1.12;100.00;102952.47;10375964;28;20088;-77
2023/03/01 07:26:55;;;;;;;0.10;0.10;;;;;;;-0.83;100.00;102946.19;10413459;28;20045;-76
2023/03/01 07:31:56;;;;;;;0.00;0.00;;;;;;;-0.65;100.00;102942.16;10398426;28;20124;-76
2023/03/01 07:36:58;;;;;;;0.20;0.20;;;;;;;-0.47;100.00;102948.22;10399652;28;20371;-76
2023/03/01 07:42:00;;;;;;;0.10;0.10;;;;;;;-0.51;100.00;102957.13;10395627;28;20034;-76
2023/03/01 07:47:03;;;;;;;0.52;0.52;;;;;;;-0.21;100.00;102962.69;10416684;28;20049;-76
2023/03/01 07:52:05;;;;;;;2.67;0.98;;;;;;;0.52;100.00;102963.28;10396255;28;20050;-77
2023/03/01 07:57:06;;;;;;;0.08;0.08;;;;;;;0.42;100.00;102975.78;10410371;28;20049;-78
2023/03/01 08:02:10;;;;;;;0.10;0.10;;;;;;;0.58;100.00;102963.88;10398825;28;20088;-79
2023/03/01 08:07:12;;;;;;;0.10;0.10;;;;;;;0.99;100.00;102962.75;10411276;28;20048;-78
2023/03/01 08:12:13;;;;;;;0.50;0.50;;;;;;;1.23;100.00;102959.16;10393393;28;20115;-79
2023/03/01 08:17:15;;;;;;;0.10;0.10;;;;;;;1.64;100.00;102957.16;10397719;28;20065;-79
2023/03/01 08:28:47;;;;;;;1.08;0.68;;;;;;;1.95;100.00;102946.47;10409826;28;20053;-77
2023/03/01 08:33:54;;;;;;;0.10;0.10;;;;;;;2.02;100.00;102949.72;10394169;28;20053;-76
2023/03/01 08:38:56;;;;;;;0.95;0.65;;;;;;;2.83;100.00;102945.25;10411848;28;20050;-77
2023/03/01 08:43:58;;;;;;;0.38;0.38;;;;;;;2.54;100.00;102943.50;10410530;28;20409;-76
2023/03/01 08:49:03;;;;;;;1.55;0.45;;;;;;;3.57;100.00;102937.22;10409111;28;20481;-77
2023/03/01 08:54:07;;;;;;;0.50;0.43;;;;;;;4.12;100.00;102934.34;10400474;28;20041;-78
2023/03/01 08:59:10;;;;;;;0.13;0.13;;;;;;;4.32;100.00;102930.03;10393913;28;20046;-78
2023/03/01 09:04:14;;;;;;;0.45;0.40;;;;;;;4.68;100.00;102921.06;10392271;28;20064;-76
2023/03/01 09:09:17;;;;;;;0.55;0.28;;;;;;;4.17;100.00;102923.63;10411718;28;20535;-78
2023/03/01 09:14:19;;;;;;;1.30;1.20;;;;;;;5.92;100.00;102912.97;10411268;28;20126;-76
2023/03/01 09:19:20;;;;;;;3.85;1.45;;;;;;;5.59;100.00;102908.69;10392917;28;20052;-77
2023/03/01 09:24:23;;;;;;;1.77;0.82;;;;;;;4.86;100.00;102908.03;10405037;28;20048;-76
2023/03/01 09:29:25;;;;;;;0.45;0.35;;;;;;;5.67;100.00;102903.41;10407248;28;20049;-77
2023/03/01 09:34:27;;;;;;;0.20;0.20;;;;;;;5.53;100.00;102896.31;10399812;28;20046;-79
2023/03/01 09:39:29;;;;;;;0.68;0.30;;;;;;;5.92;100.00;102884.81;10421220;28;20037;-80
2023/03/01 09:44:42;;;;;;;0.57;0.43;;;;;;;6.39;97.90;102893.47;10425758;28;20053;-79
2023/03/01 09:49:54;;;;;;;4.03;0.57;;;;;;;7.29;98.08;102883.84;10399028;28;20037;-80
2023/03/01 09:54:56;;;;;;;0.45;0.45;;;;;;;5.88;97.82;102882.81;10401588;28;20052;-81
2023/03/01 10:00:12;;;;;;;0.73;0.57;;;;;;;6.72;96.37;102882.28;10403491;28;20122;-80
2023/03/01 10:05:22;;;;;;;0.45;0.38;;;;;;;6.77;93.21;102865.59;10401846;28;20056;-79
2023/03/01 10:10:33;;;;;;;1.73;0.57;;;;;;;7.03;90.54;102858.03;10417249;28;20041;-80
2023/03/01 10:15:43;;;;;;;0.63;0.35;;;;;;;6.35;87.73;102857.41;10397868;28;20501;-80
2023/03/01 10:21:15;;;;;;;1.15;0.75;;;;;;;7.63;87.65;102845.16;10402457;28;20045;-79
2023/03/01 10:26:41;;;;;;;0.35;0.35;;;;;;;6.65;86.49;102823.69;10394643;28;20049;-80
2023/03/01 10:31:49;;;;;;;0.57;0.57;;;;;;;5.76;86.84;102823.06;10380124;28;20076;-78
2023/03/01 10:36:55;;;;;;;0.32;0.32;;;;;;;7.28;85.67;102822.19;10394848;28;20100;-79
2023/03/01 10:41:58;;;;;;;0.05;0.05;;;;;;;8.25;85.29;102804.78;10413457;28;20041;-79
2023/03/01 10:47:01;;;;;;;0.57;0.43;;;;;;;6.83;83.29;102811.34;10410199;28;20050;-79
2023/03/01 10:52:23;;;;;;;2.75;1.88;;;;;;;6.54;84.67;102807.56;10390554;28;20050;-79
2023/03/01 10:57:37;;;;;;;0.25;0.25;;;;;;;8.29;84.16;102800.75;10406780;28;20145;-79
2023/03/01 11:02:42;;;;;;;0.73;0.50;;;;;;;6.77;85.72;102816.03;10376482;28;20080;-80
2023/03/01 11:08:11;;;;;;;1.02;0.55;;;;;;;7.05;83.23;102812.88;10385373;28;20049;-79
2023/03/01 11:13:17;;;;;;;0.43;0.43;;;;;;;8.66;81.53;102810.88;10402695;28;20057;-79
2023/03/01 11:18:21;;;;;;;0.70;0.50;;;;;;;8.56;81.34;102805.16;10410311;28;20041;-79
2023/03/01 11:23:38;;;;;;;0.25;0.25;;;;;;;8.41;78.66;102802.41;10411142;28;20161;-79
2023/03/01 11:28:42;;;;;;;0.80;0.38;;;;;;;7.04;81.60;102813.63;10412454;28;20072;-80
2023/03/01 11:34:07;;;;;;;1.48;0.85;;;;;;;7.13;82.15;102811.75;10411720;28;20408;-80
2023/03/01 11:39:39;;;;;;;0.63;0.45;;;;;;;7.39;80.88;102805.00;10391954;28;20065;-78
2023/03/01 11:44:44;;;;;;;0.40;0.25;;;;;;;7.76;76.04;102787.00;10392105;28;20071;-79
2023/03/01 11:49:53;;;;;;;0.68;0.52;;;;;;;7.40;78.08;102799.09;10393413;28;20042;-79
2023/03/01 11:55:19;;;;;;;0.17;0.13;;;;;;;7.84;75.93;102805.47;10408906;28;20056;-78
2023/03/01 12:00:55;;;;;;;0.20;0.20;;;;;;;8.24;75.17;102803.88;10394686;28;20152;-79
2023/03/01 12:06:11;;;;;;;0.65;0.65;;;;;;;9.06;76.29;102790.25;10409426;28;20061;-79
2023/03/01 12:11:30;;;;;;;0.60;0.47;;;;;;;8.43;73.07;102779.41;10392532;28;20493;-80
2023/03/01 12:17:02;;;;;;;0.40;0.30;;;;;;;7.50;75.24;102782.66;10390020;28;20037;-80
2023/03/01 12:22:25;;;;;;;3.13;1.25;;;;;;;8.67;75.81;102776.69;10381349;28;20123;-80
2023/03/01 12:27:36;;;;;;;0.90;0.65;;;;;;;8.54;69.83;102773.31;10408469;28;20048;-79
2023/03/01 12:32:57;;;;;;;1.77;1.65;;;;;;;7.80;73.41;102768.44;10372282;28;20044;-79
2023/03/01 12:38:02;;;;;;;0.22;0.22;;;;;;;8.33;73.88;102746.22;10410171;28;20041;-79
2023/03/01 12:43:11;;;;;;;2.38;1.48;;;;;;;9.32;72.24;102745.56;10404950;28;20183;-78
2023/03/01 12:48:34;;;;;;;1.15;0.68;;;;;;;8.50;68.23;102732.81;10373091;28;20445;-79
2023/03/01 12:53:41;;;;;;;1.88;0.85;;;;;;;7.80;70.37;102732.53;10384881;28;20041;-77
2023/03/01 12:59:05;;;;;;;0.20;0.20;;;;;;;9.45;69.82;102700.91;10371429;28;20052;-78
2023/03/01 13:04:24;;;;;;;0.30;0.30;;;;;;;8.22;69.59;102705.34;10401188;28;20509;-78
2023/03/01 13:09:32;;;;;;;0.05;0.05;;;;;;;8.45;73.16;102689.59;10383813;28;20049;-80
2023/03/01 13:14:36;;;;;;;0.00;0.00;;;;;;;7.71;74.83;102680.59;10384952;28;20489;-79
2023/03/01 13:19:41;;;;;;;3.95;0.38;;;;;;;8.10;74.09;102671.16;10362686;28;20103;-79
2023/03/01 13:24:42;;;;;;;0.32;0.20;;;;;;;8.39;73.43;102664.41;10401096;28;20547;-79
2023/03/01 13:29:56;;;;;;;0.43;0.43;;;;;;;8.66;71.46;102664.41;10374959;28;20041;-78
2023/03/01 13:35:26;;;;;;;0.55;0.50;;;;;;;8.50;70.13;102658.31;10399523;28;20049;-79
2023/03/01 13:40:27;;;;;;;0.95;0.50;;;;;;;7.85;65.35;102643.94;10404121;28;20047;-79
2023/03/01 13:45:39;;;;;;;0.43;0.35;;;;;;;7.98;68.12;102642.13;10379960;28;20076;-79
2023/03/01 13:50:52;;;;;;;0.40;0.35;;;;;;;9.12;69.84;102626.06;10375961;28;20037;-79
2023/03/01 13:56:06;;;;;;;0.45;0.28;;;;;;;8.73;67.72;102622.91;10400666;28;20089;-80
2023/03/01 14:01:21;;;;;;;0.25;0.17;;;;;;;8.28;66.17;102626.91;10405935;28;20064;-79
2023/03/01 14:06:30;;;;;;;0.55;0.10;;;;;;;8.02;69.94;102631.25;10397246;28;20472;-80
2023/03/01 14:11:39;;;;;;;0.60;0.60;;;;;;;7.89;67.18;102625.34;10395467;28;20049;-79
2023/03/01 14:17:09;;;;;;;0.10;0.10;;;;;;;8.20;70.26;102611.91;10396624;28;20084;-79
2023/03/01 14:22:23;;;;;;;0.30;0.30;;;;;;;8.00;68.73;102608.06;10411103;28;20092;-78
2023/03/01 14:27:39;;;;;;;2.00;0.75;;;;;;;8.35;68.55;102599.13;10398022;28;20080;-79
2023/03/01 14:32:41;;;;;;;0.50;0.47;;;;;;;8.96;69.40;102577.13;10410889;28;20120;-78
2023/03/01 14:37:43;;;;;;;0.13;0.13;;;;;;;8.36;70.81;102566.66;10360077;28;20056;-79
2023/03/01 14:42:44;;;;;;;0.15;0.03;;;;;;;8.23;66.29;102572.69;10399393;28;20041;-78
2023/03/01 14:47:47;;;;;;;0.47;0.45;;;;;;;8.09;68.96;102564.13;10397621;28;20046;-77
2023/03/01 14:52:54;;;;;;;0.52;0.52;;;;;;;8.61;69.20;102560.47;10398120;28;20056;-77
2023/03/01 14:58:05;;;;;;;0.45;0.40;;;;;;;8.15;66.26;102549.13;10398204;28;20099;-77
2023/03/01 15:03:23;;;;;;;0.13;0.10;;;;;;;8.45;70.58;102541.50;10417391;28;20049;-76
2023/03/01 15:08:36;;;;;;;0.10;0.10;;;;;;;8.10;67.64;102537.66;10395649;28;20068;-80
2023/03/01 15:13:38;;;;;;;;;;;;;;;7.98;65.25;102537.78;10396226;28;20041;-77
2023/03/01 15:18:52;;;;;;;0.90;0.50;;;;;;;7.73;66.95;102540.47;10390089;28;20280;-78
2023/03/01 15:23:57;;;;;;;0.30;0.30;;;;;;;8.04;68.06;102539.84;10398593;28;20049;-78
2023/03/01 15:29:00;;;;;;;0.17;0.17;;;;;;;7.52;65.55;102535.75;10384272;28;20053;-77
2023/03/01 15:34:28;;;;;;;0.10;0.10;;;;;;;7.55;65.58;102535.97;10397121;28;20121;-77
2023/03/01 15:39:38;;;;;;;0.15;0.15;;;;;;;7.38;64.98;102539.09;10397361;28;20069;-77
2023/03/01 15:44:44;;;;;;;;;;;;;;;7.39;67.30;102540.88;10408673;28;20653;-78
2023/03/01 15:49:46;;;;;;;0.28;0.20;;;;;;;7.49;69.13;102545.78;10408076;28;20372;-77
2023/03/01 15:54:59;;;;;;;0.30;0.30;;;;;;;7.32;68.05;102531.00;10414342;28;20045;-78
2023/03/01 16:00:00;;;;;;;0.35;0.25;;;;;;;7.20;70.19;102531.09;10393477;28;20100;-78
2023/03/01 16:05:06;;;;;;;2.10;1.02;;;;;;;6.95;69.08;102527.78;10409419;28;20123;-78
2023/03/01 16:10:08;;;;;;;0.10;0.10;;;;;;;7.06;68.36;102522.47;10394501;28;20041;-77
2023/03/01 16:15:20;;;;;;;0.90;0.43;;;;;;;7.03;69.97;102518.03;10393988;28;20095;-77
2023/03/01 16:20:22;;;;;;;0.43;0.43;;;;;;;6.78;71.97;102520.63;10408782;28;20328;-77
2023/03/01 16:25:32;;;;;;;0.03;0.00;;;;;;;6.43;70.89;102521.69;10392133;28;20512;-78
2023/03/01 16:30:35;;;;;;;0.00;0.00;;;;;;;6.34;72.69;102517.72;10409963;28;20073;-78
2023/03/01 16:35:40;;;;;;;0.00;0.00;;;;;;;6.25;72.25;102531.56;10391846;28;20046;-76
2023/03/01 16:40:47;;;;;;;0.20;0.17;;;;;;;6.01;74.04;102527.34;10389516;28;20053;-77
2023/03/01 16:45:48;;;;;;;0.03;0.03;;;;;;;5.67;78.09;102524.94;10393619;28;20053;-78
2023/03/01 16:51:01;;;;;;;0.00;0.00;;;;;;;5.55;79.14;102522.38;10392926;28;20045;-77
2023/03/01 16:56:05;;;;;;;0.03;0.03;;;;;;;5.21;80.83;102527.56;10405149;28;20080;-76
2023/03/01 17:01:10;;;;;;;0.20;0.20;;;;;;;5.40;80.55;102527.25;10389183;28;20057;-76
2023/03/01 17:06:17;;;;;;;1.17;0.55;;;;;;;4.79;83.98;102525.25;10411119;28;20512;-76
2023/03/01 17:11:20;;;;;;;0.20;0.20;;;;;;;4.65;85.86;102535.31;10394110;28;20052;-76
2023/03/01 17:16:22;;;;;;;1.15;0.30;;;;;;;4.39;87.39;102539.31;10395004;28;20117;-78
2023/03/01 17:21:24;;;;;;;0.00;0.00;;;;;;;4.09;88.79;102541.25;10412576;28;20042;-77
2023/03/01 17:26:28;;;;;;;0.00;0.00;;;;;;;4.07;90.10;102540.22;10389748;28;20978;-78
2023/03/01 17:31:31;;;;;;;0.40;0.20;;;;;;;4.13;88.66;102539.81;10385300;28;20052;-77
2023/03/01 17:36:40;;;;;;;0.00;0.00;;;;;;;3.90;90.03;102545.66;10405554;28;20044;-76
2023/03/01 17:41:42;;;;;;;0.22;0.13;;;;;;;4.03;89.75;102550.97;10407579;28;20045;-78
2023/03/01 17:46:44;;;;;;;0.00;0.00;;;;;;;3.85;90.07;102555.50;10394717;28;20045;-77
2023/03/01 17:51:45;;;;;;;0.00;0.00;;;;;;;3.77;90.16;102554.88;10394967;28;20049;-78
2023/03/01 17:56:49;;;;;;;0.10;0.10;;;;;;;3.73;90.72;102554.50;10396476;28;20049;-78
2023/03/01 18:01:51;;;;;;;0.22;0.22;;;;;;;3.38;92.55;102552.53;10395004;28;20041;-76
2023/03/01 18:06:53;;;;;;;0.00;0.00;;;;;;;2.87;96.56;102566.19;10395546;28;20471;-77
2023/03/01 18:11:55;;;;;;;0.35;0.35;;;;;;;3.20;94.81;102557.00;10393091;28;20041;-77
2023/03/01 18:16:56;;;;;;;0.00;0.00;;;;;;;3.14;95.71;102558.31;10414407;28;20041;-78
2023/03/01 18:21:58;;;;;;;0.03;0.03;;;;;;;2.99;95.62;102557.91;10378109;28;20054;-78
2023/03/01 18:26:59;;;;;;;0.43;0.43;;;;;;;3.03;97.63;102553.97;10394054;28;20053;-77
2023/03/01 18:32:01;;;;;;;0.10;0.10;;;;;;;2.67;98.69;102555.19;10378778;28;20041;-77
2023/03/01 18:37:06;;;;;;;0.00;0.00;;;;;;;2.72;99.82;102555.59;10397207;28;20096;-77
2023/03/01 18:42:10;;;;;;;0.20;0.10;;;;;;;2.81;99.47;102562.34;10393563;28;20050;-78
2023/03/01 18:47:12;;;;;;;0.00;0.00;;;;;;;2.63;99.83;102559.16;10378783;28;20200;-77
2023/03/01 18:52:16;;;;;;;0.00;0.00;;;;;;;2.85;100.00;102554.22;10393984;28;20053;-79
2023/03/01 18:57:18;;;;;;;0.40;0.40;;;;;;;2.69;100.00;102557.09;10392413;28;20045;-78
2023/03/01 19:02:19;;;;;;;1.05;0.63;;;;;;;2.52;100.00;102560.78;10407926;28;20045;-79
2023/03/01 19:07:21;;;;;;;0.10;0.10;;;;;;;2.74;100.00;102554.09;10395801;28;20169;-79
2023/03/01 19:12:23;;;;;;;2.25;0.75;;;;;;;2.74;100.00;102557.50;10373331;28;20408;-78
2023/03/01 19:17:29;;;;;;;0.05;0.05;;;;;;;2.56;100.00;102556.84;10401230;28;20080;-79
2023/03/01 19:22:30;;;;;;;0.10;0.10;;;;;;;2.74;100.00;102546.44;10394123;28;20056;-79
2023/03/01 19:27:32;;;;;;;0.55;0.25;;;;;;;2.62;100.00;102548.84;10380390;28;20053;-78
2023/03/01 19:32:34;;;;;;;0.40;0.40;;;;;;;2.71;100.00;102552.19;10410684;28;20042;-79
2023/03/01 19:37:35;;;;;;;0.20;0.20;;;;;;;2.54;100.00;102561.81;10377350;28;20386;-78
2023/03/01 19:42:37;;;;;;;0.13;0.13;;;;;;;2.67;100.00;102562.84;10391182;28;20095;-79
2023/03/01 19:47:39;;;;;;;0.10;0.10;;;;;;;2.33;100.00;102565.06;10391706;28;20099;-79
2023/03/01 19:52:42;;;;;;;0.10;0.10;;;;;;;2.52;100.00;102547.19;10394102;28;20045;-79
2023/03/01 19:57:43;;;;;;;0.40;0.35;;;;;;;2.30;100.00;102554.59;10394500;28;20096;-78
2023/03/01 20:02:45;;;;;;;0.00;0.00;;;;;;;2.31;100.00;102561.47;10410627;28;20049;-79
2023/03/01 20:07:47;;;;;;;0.65;0.57;;;;;;;2.24;100.00;102561.72;10387489;28;20111;-78
2023/03/01 20:12:48;;;;;;;0.10;0.10;;;;;;;2.22;100.00;102557.38;10403579;28;20041;-78
2023/03/01 20:17:50;;;;;;;0.10;0.10;;;;;;;2.24;100.00;102556.63;10406785;28;20061;-79
2023/03/01 20:22:51;;;;;;;0.05;0.05;;;;;;;2.24;100.00;102559.16;10388365;28;20065;-79
2023/03/01 20:27:53;;;;;;;0.15;0.15;;;;;;;2.04;100.00;102556.69;10392280;28;20049;-79
2023/03/01 20:32:55;;;;;;;0.20;0.20;;;;;;;1.88;100.00;102562.09;10390451;28;20075;-79
2023/03/01 20:37:57;;;;;;;0.17;0.17;;;;;;;1.95;100.00;102560.06;10385861;28;20104;-80
2023/03/01 20:42:58;;;;;;;0.10;0.10;;;;;;;1.89;100.00;102558.78;10406266;28;20068;-79
2023/03/01 20:48:00;;;;;;;0.00;0.00;;;;;;;1.71;100.00;102564.78;10388180;28;20045;-79
2023/03/01 20:53:01;;;;;;;0.00;0.00;;;;;;;1.90;100.00;102557.13;10375389;28;20433;-79
2023/03/01 20:58:03;;;;;;;0.00;0.00;;;;;;;1.93;100.00;102559.94;10358088;28;20057;-80
2023/03/01 21:03:05;;;;;;;0.00;0.00;;;;;;;2.04;100.00;102569.41;10400426;28;20104;-79
2023/03/01 21:08:06;;;;;;;0.05;0.05;;;;;;;2.06;100.00;102569.50;10398404;28;20033;-78
2023/03/01 21:13:09;;;;;;;7.47;1.02;;;;;;;1.96;100.00;102567.81;10387369;28;20068;-78
2023/03/01 21:18:10;;;;;;;0.20;0.20;;;;;;;1.77;100.00;102564.44;10401972;28;20099;-80
2023/03/01 21:23:12;;;;;;;0.38;0.38;;;;;;;1.87;100.00;102555.22;10389738;28;20049;-80
2023/03/01 21:28:14;;;;;;;0.00;0.00;;;;;;;1.88;100.00;102559.53;10385056;28;20107;-81
2023/03/01 21:33:15;;;;;;;0.10;0.10;;;;;;;1.86;100.00;102553.44;10385944;28;20399;-81
2023/03/01 21:38:17;;;;;;;0.28;0.28;;;;;;;1.72;100.00;102556.41;10407347;28;20046;-81
2023/03/01 21:43:18;;;;;;;0.82;0.80;;;;;;;1.70;100.00;102542.66;10381750;28;20049;-77
2023/03/01 21:48:20;;;;;;;0.15;0.15;;;;;;;1.67;100.00;102544.94;10403497;28;20243;-78
2023/03/01 21:53:22;;;;;;;0.08;0.08;;;;;;;1.47;100.00;102548.25;10399307;28;20393;-77
2023/03/01 21:58:26;;;;;;;0.75;0.40;;;;;;;1.62;100.00;102541.09;10374359;28;20501;-77
2023/03/01 22:03:28;;;;;;;1.88;0.63;;;;;;;1.48;100.00;102540.75;10373010;28;20051;-78
2023/03/01 22:08:30;;;;;;;1.35;1.25;;;;;;;1.34;100.00;102542.06;10401170;28;20049;-77
2023/03/01 22:13:31;;;;;;;0.00;0.00;;;;;;;1.33;100.00;102540.28;10407806;28;20049;-76
2023/03/01 22:18:33;;;;;;;0.32;0.32;;;;;;;1.40;100.00;102532.47;10413785;28;20049;-76
2023/03/01 22:23:37;;;;;;;0.88;0.88;;;;;;;1.34;100.00;102528.47;10410802;28;20041;-77
2023/03/01 22:28:39;;;;;;;0.10;0.10;;;;;;;1.25;100.00;102526.91;10395974;28;20052;-77
2023/03/01 22:33:41;;;;;;;0.08;0.08;;;;;;;1.04;100.00;102535.13;10413337;28;20053;-78
2023/03/01 22:38:43;;;;;;;0.60;0.52;;;;;;;1.09;100.00;102528.78;10396294;28;20037;-77
2023/03/01 22:43:44;;;;;;;0.20;0.20;;;;;;;1.09;100.00;102532.25;10424601;28;20045;-78
2023/03/01 22:48:46;;;;;;;0.17;0.17;;;;;;;1.12;100.00;102524.00;10400011;28;20056;-78
2023/03/01 22:53:48;;;;;;;0.10;0.10;;;;;;;1.13;100.00;102530.88;10400183;28;20069;-78
2023/03/01 22:58:50;;;;;;;0.00;0.00;;;;;;;1.00;100.00;102545.75;10381636;28;20053;-78
2023/03/01 23:03:52;;;;;;;0.60;0.60;;;;;;;1.14;100.00;102537.75;10419300;28;20125;-77
2023/03/01 23:08:58;;;;;;;0.15;0.15;;;;;;;1.02;100.00;102542.59;10399849;28;20038;-77
2023/03/01 23:13:59;;;;;;;0.10;0.10;;;;;;;0.74;100.00;102544.25;10397259;28;20041;-77
2023/03/01 23:19:03;;;;;;;0.38;0.38;;;;;;;0.78;100.00;102533.66;10398384;28;20056;-76
2023/03/01 23:24:05;;;;;;;0.50;0.50;;;;;;;0.79;100.00;102538.84;10416656;28;20038;-76
2023/03/01 23:29:07;;;;;;;0.00;0.00;;;;;;;0.77;100.00;102537.81;10415695;28;20048;-76
2023/03/01 23:34:09;;;;;;;0.10;0.10;;;;;;;0.76;100.00;102533.47;10415457;28;20048;-76